sensor_id;sensor_type;location;lat;lon;timestamp;temperature;humidity
24518;DHT22;12678;51.336;12.406;2023-09-18T00:00:03;21.70;99.90
24518;DHT22;12678;51.336;12.406;2023-09-18T00:02:30;21.60;99.90
24518;DHT22;12678;51.336;12.406;2023-09-18T00:04:56;21.70;99.90
24518;DHT22;12678;51.336;12.406;2023-09-18T00:07:22;21.60;99.90
24518;DHT22;12678;51.336;12.406;2023-09-18T00:09:47;21.60;99.90
24518;DHT22;12678;51.336;12.406;2023-09-18T00:12:14;21.60;99.90
24518;DHT22;12678;51.336;12.406;2023-09-18T00:14:39;21.60;99.90
24518;DHT22;12678;51.336;12.406;2023-09-18T00:17:06;21.70;99.90
24518;DHT22;12678;51.336;12.406;2023-09-18T00:19:32;21.70;99.90
24518;DHT22;12678;51.336;12.406;2023-09-18T00:21:58;21.70;99.90
24518;DHT22;12678;51.336;12.406;2023-09-18T00:24:26;21.60;99.90
24518;DHT22;12678;51.336;12.406;2023-09-18T00:26:52;21.70;99.90
24518;DHT22;12678;51.336;12.406;2023-09-18T00:29:18;21.60;99.90
24518;DHT22;12678;51.336;12.406;2023-09-18T00:31:44;21.50;99.90
24518;DHT22;12678;51.336;12.406;2023-09-18T00:34:09;21.40;99.90
24518;DHT22;12678;51.336;12.406;2023-09-18T00:36:35;21.40;99.90
24518;DHT22;12678;51.336;12.406;2023-09-18T00:39:00;21.40;99.90
24518;DHT22;12678;51.336;12.406;2023-09-18T00:41:26;21.50;99.90
24518;DHT22;12678;51.336;12.406;2023-09-18T00:43:51;21.60;99.90
24518;DHT22;12678;51.336;12.406;2023-09-18T00:46:17;21.50;99.90
24518;DHT22;12678;51.336;12.406;2023-09-18T00:48:43;21.50;99.90
24518;DHT22;12678;51.336;12.406;2023-09-18T00:51:08;21.40;99.90
24518;DHT22;12678;51.336;12.406;2023-09-18T00:53:36;21.50;99.90
24518;DHT22;12678;51.336;12.406;2023-09-18T00:56:03;21.40;99.90
24518;DHT22;12678;51.336;12.406;2023-09-18T00:58:29;21.50;99.90
24518;DHT22;12678;51.336;12.406;2023-09-18T01:00:55;21.50;99.90
24518;DHT22;12678;51.336;12.406;2023-09-18T01:03:22;21.40;99.90
24518;DHT22;12678;51.336;12.406;2023-09-18T01:05:48;21.50;99.90
24518;DHT22;12678;51.336;12.406;2023-09-18T01:08:13;21.50;99.90
24518;DHT22;12678;51.336;12.406;2023-09-18T01:10:53;21.50;99.90
24518;DHT22;12678;51.336;12.406;2023-09-18T01:13:25;21.40;99.90
24518;DHT22;12678;51.336;12.406;2023-09-18T01:16:05;21.50;99.90
24518;DHT22;12678;51.336;12.406;2023-09-18T01:18:33;21.50;99.90
24518;DHT22;12678;51.336;12.406;2023-09-18T01:20:59;21.50;99.90
24518;DHT22;12678;51.336;12.406;2023-09-18T01:23:24;21.40;99.90
24518;DHT22;12678;51.336;12.406;2023-09-18T01:25:50;21.40;99.90
24518;DHT22;12678;51.336;12.406;2023-09-18T01:28:16;21.40;99.90
24518;DHT22;12678;51.336;12.406;2023-09-18T01:30:41;21.40;99.90
24518;DHT22;12678;51.336;12.406;2023-09-18T01:33:08;21.30;99.90
24518;DHT22;12678;51.336;12.406;2023-09-18T01:35:34;21.30;99.90
24518;DHT22;12678;51.336;12.406;2023-09-18T01:38:01;21.30;99.90
24518;DHT22;12678;51.336;12.406;2023-09-18T01:40:28;21.20;99.90
24518;DHT22;12678;51.336;12.406;2023-09-18T01:42:54;21.20;99.90
24518;DHT22;12678;51.336;12.406;2023-09-18T01:45:19;21.20;99.90
24518;DHT22;12678;51.336;12.406;2023-09-18T01:47:46;21.20;99.90
24518;DHT22;12678;51.336;12.406;2023-09-18T01:50:11;21.10;99.90
24518;DHT22;12678;51.336;12.406;2023-09-18T01:52:37;21.10;99.90
24518;DHT22;12678;51.336;12.406;2023-09-18T01:55:03;21.20;99.90
24518;DHT22;12678;51.336;12.406;2023-09-18T01:57:33;21.10;99.90
24518;DHT22;12678;51.336;12.406;2023-09-18T01:59:58;21.10;99.90
24518;DHT22;12678;51.336;12.406;2023-09-18T02:02:24;21.00;99.90
24518;DHT22;12678;51.336;12.406;2023-09-18T02:04:49;21.00;99.90
24518;DHT22;12678;51.336;12.406;2023-09-18T02:07:15;21.00;99.90
24518;DHT22;12678;51.336;12.406;2023-09-18T02:09:40;20.90;99.90
24518;DHT22;12678;51.336;12.406;2023-09-18T02:12:06;20.80;99.90
24518;DHT22;12678;51.336;12.406;2023-09-18T02:14:32;20.80;99.90
24518;DHT22;12678;51.336;12.406;2023-09-18T02:16:59;20.80;99.90
24518;DHT22;12678;51.336;12.406;2023-09-18T02:19:25;20.90;99.90
24518;DHT22;12678;51.336;12.406;2023-09-18T02:21:51;20.80;99.90
24518;DHT22;12678;51.336;12.406;2023-09-18T02:24:17;20.80;99.90
24518;DHT22;12678;51.336;12.406;2023-09-18T02:26:43;20.90;99.90
24518;DHT22;12678;51.336;12.406;2023-09-18T02:29:10;20.90;99.90
24518;DHT22;12678;51.336;12.406;2023-09-18T02:31:37;20.90;99.90
24518;DHT22;12678;51.336;12.406;2023-09-18T02:34:03;20.80;99.90
24518;DHT22;12678;51.336;12.406;2023-09-18T02:36:28;20.90;99.90
24518;DHT22;12678;51.336;12.406;2023-09-18T02:38:54;20.80;99.90
24518;DHT22;12678;51.336;12.406;2023-09-18T02:41:20;20.80;99.90
24518;DHT22;12678;51.336;12.406;2023-09-18T02:43:45;20.80;99.90
24518;DHT22;12678;51.336;12.406;2023-09-18T02:46:11;20.90;99.90
24518;DHT22;12678;51.336;12.406;2023-09-18T02:48:36;20.90;99.90
24518;DHT22;12678;51.336;12.406;2023-09-18T02:51:02;20.80;99.90
24518;DHT22;12678;51.336;12.406;2023-09-18T02:53:28;20.80;99.90
24518;DHT22;12678;51.336;12.406;2023-09-18T02:55:55;20.80;99.90
24518;DHT22;12678;51.336;12.406;2023-09-18T02:58:21;20.70;99.90
24518;DHT22;12678;51.336;12.406;2023-09-18T03:00:50;20.70;99.90
24518;DHT22;12678;51.336;12.406;2023-09-18T03:03:16;20.70;99.90
24518;DHT22;12678;51.336;12.406;2023-09-18T03:05:43;20.70;99.90
24518;DHT22;12678;51.336;12.406;2023-09-18T03:08:10;20.50;99.90
24518;DHT22;12678;51.336;12.406;2023-09-18T03:10:40;20.60;99.90
24518;DHT22;12678;51.336;12.406;2023-09-18T03:13:06;20.70;99.90
24518;DHT22;12678;51.336;12.406;2023-09-18T03:15:33;20.70;99.90
24518;DHT22;12678;51.336;12.406;2023-09-18T03:17:59;20.60;99.90
24518;DHT22;12678;51.336;12.406;2023-09-18T03:20:26;20.50;99.90
24518;DHT22;12678;51.336;12.406;2023-09-18T03:22:54;20.60;99.90
24518;DHT22;12678;51.336;12.406;2023-09-18T03:25:20;20.50;99.90
24518;DHT22;12678;51.336;12.406;2023-09-18T03:27:46;20.50;99.90
24518;DHT22;12678;51.336;12.406;2023-09-18T03:30:12;20.60;99.90
24518;DHT22;12678;51.336;12.406;2023-09-18T03:32:41;20.60;99.90
24518;DHT22;12678;51.336;12.406;2023-09-18T03:35:07;20.60;99.90
24518;DHT22;12678;51.336;12.406;2023-09-18T03:37:34;20.50;99.90
24518;DHT22;12678;51.336;12.406;2023-09-18T03:39:59;20.60;99.90
24518;DHT22;12678;51.336;12.406;2023-09-18T03:42:26;20.60;99.90
24518;DHT22;12678;51.336;12.406;2023-09-18T03:44:51;20.70;99.90
24518;DHT22;12678;51.336;12.406;2023-09-18T03:47:17;20.60;99.90
24518;DHT22;12678;51.336;12.406;2023-09-18T03:49:42;20.50;99.90
24518;DHT22;12678;51.336;12.406;2023-09-18T03:52:08;20.50;99.90
24518;DHT22;12678;51.336;12.406;2023-09-18T03:54:33;20.50;99.90
24518;DHT22;12678;51.336;12.406;2023-09-18T03:56:59;20.50;99.90
24518;DHT22;12678;51.336;12.406;2023-09-18T03:59:25;20.40;99.90
24518;DHT22;12678;51.336;12.406;2023-09-18T04:01:50;20.30;99.90
24518;DHT22;12678;51.336;12.406;2023-09-18T04:04:16;20.30;99.90
24518;DHT22;12678;51.336;12.406;2023-09-18T04:06:43;20.40;99.90
24518;DHT22;12678;51.336;12.406;2023-09-18T04:09:09;20.50;99.90
24518;DHT22;12678;51.336;12.406;2023-09-18T04:11:35;20.50;99.90
24518;DHT22;12678;51.336;12.406;2023-09-18T04:14:01;20.40;99.90
24518;DHT22;12678;51.336;12.406;2023-09-18T04:16:28;20.50;99.90
24518;DHT22;12678;51.336;12.406;2023-09-18T04:18:54;20.40;99.90
24518;DHT22;12678;51.336;12.406;2023-09-18T04:21:20;20.50;99.90
24518;DHT22;12678;51.336;12.406;2023-09-18T04:23:47;20.50;99.90
24518;DHT22;12678;51.336;12.406;2023-09-18T04:26:12;20.30;99.90
24518;DHT22;12678;51.336;12.406;2023-09-18T04:28:41;20.30;99.90
24518;DHT22;12678;51.336;12.406;2023-09-18T04:31:07;20.40;99.90
24518;DHT22;12678;51.336;12.406;2023-09-18T04:33:33;20.50;99.90
24518;DHT22;12678;51.336;12.406;2023-09-18T04:35:58;20.30;99.90
24518;DHT22;12678;51.336;12.406;2023-09-18T04:38:24;20.30;99.90
24518;DHT22;12678;51.336;12.406;2023-09-18T04:40:49;20.40;99.90
24518;DHT22;12678;51.336;12.406;2023-09-18T04:43:22;20.40;99.90
24518;DHT22;12678;51.336;12.406;2023-09-18T04:45:50;20.40;99.90
24518;DHT22;12678;51.336;12.406;2023-09-18T04:48:16;20.20;99.90
24518;DHT22;12678;51.336;12.406;2023-09-18T04:50:43;20.30;99.90
24518;DHT22;12678;51.336;12.406;2023-09-18T04:53:08;20.20;99.90
24518;DHT22;12678;51.336;12.406;2023-09-18T04:55:34;20.10;99.90
24518;DHT22;12678;51.336;12.406;2023-09-18T04:58:00;20.20;99.90
24518;DHT22;12678;51.336;12.406;2023-09-18T05:00:25;20.20;99.90
24518;DHT22;12678;51.336;12.406;2023-09-18T05:02:52;20.30;99.90
24518;DHT22;12678;51.336;12.406;2023-09-18T05:05:18;20.20;99.90
24518;DHT22;12678;51.336;12.406;2023-09-18T05:07:44;20.20;99.90
24518;DHT22;12678;51.336;12.406;2023-09-18T05:10:10;20.20;99.90
24518;DHT22;12678;51.336;12.406;2023-09-18T05:12:38;20.40;99.90
24518;DHT22;12678;51.336;12.406;2023-09-18T05:15:04;20.30;99.90
24518;DHT22;12678;51.336;12.406;2023-09-18T05:17:45;20.30;99.90
24518;DHT22;12678;51.336;12.406;2023-09-18T05:20:17;20.40;99.90
24518;DHT22;12678;51.336;12.406;2023-09-18T05:22:44;20.30;99.90
24518;DHT22;12678;51.336;12.406;2023-09-18T05:25:10;20.20;99.90
24518;DHT22;12678;51.336;12.406;2023-09-18T05:27:36;20.10;99.90
24518;DHT22;12678;51.336;12.406;2023-09-18T05:30:13;20.10;99.90
24518;DHT22;12678;51.336;12.406;2023-09-18T05:32:40;20.10;99.90
24518;DHT22;12678;51.336;12.406;2023-09-18T05:35:06;20.10;99.90
24518;DHT22;12678;51.336;12.406;2023-09-18T05:37:35;20.20;99.90
24518;DHT22;12678;51.336;12.406;2023-09-18T05:40:01;20.30;99.90
24518;DHT22;12678;51.336;12.406;2023-09-18T05:42:29;20.30;99.90
24518;DHT22;12678;51.336;12.406;2023-09-18T05:44:55;20.50;99.90
24518;DHT22;12678;51.336;12.406;2023-09-18T05:47:21;20.40;99.90
24518;DHT22;12678;51.336;12.406;2023-09-18T05:49:48;20.60;99.90
24518;DHT22;12678;51.336;12.406;2023-09-18T05:52:13;20.70;99.90
24518;DHT22;12678;51.336;12.406;2023-09-18T05:54:39;20.90;99.90
24518;DHT22;12678;51.336;12.406;2023-09-18T05:57:04;20.90;99.90
24518;DHT22;12678;51.336;12.406;2023-09-18T05:59:30;20.90;99.90
24518;DHT22;12678;51.336;12.406;2023-09-18T06:01:56;20.80;99.90
24518;DHT22;12678;51.336;12.406;2023-09-18T06:04:22;20.80;99.90
24518;DHT22;12678;51.336;12.406;2023-09-18T06:06:49;20.90;99.90
24518;DHT22;12678;51.336;12.406;2023-09-18T06:09:14;20.90;99.90
24518;DHT22;12678;51.336;12.406;2023-09-18T06:11:40;20.80;99.90
24518;DHT22;12678;51.336;12.406;2023-09-18T06:14:06;20.90;99.90
24518;DHT22;12678;51.336;12.406;2023-09-18T06:16:31;20.80;99.90
24518;DHT22;12678;51.336;12.406;2023-09-18T06:18:57;20.80;99.90
24518;DHT22;12678;51.336;12.406;2023-09-18T06:21:22;20.80;99.90
24518;DHT22;12678;51.336;12.406;2023-09-18T06:23:48;20.80;99.90
24518;DHT22;12678;51.336;12.406;2023-09-18T06:26:13;20.80;99.90
24518;DHT22;12678;51.336;12.406;2023-09-18T06:28:39;20.80;99.90
24518;DHT22;12678;51.336;12.406;2023-09-18T06:31:05;20.80;99.90
24518;DHT22;12678;51.336;12.406;2023-09-18T06:33:31;20.80;99.90
24518;DHT22;12678;51.336;12.406;2023-09-18T06:35:56;20.80;99.90
24518;DHT22;12678;51.336;12.406;2023-09-18T06:38:22;20.90;99.90
24518;DHT22;12678;51.336;12.406;2023-09-18T06:40:48;20.90;99.90
24518;DHT22;12678;51.336;12.406;2023-09-18T06:43:13;21.00;99.90
24518;DHT22;12678;51.336;12.406;2023-09-18T06:45:39;21.00;99.90
24518;DHT22;12678;51.336;12.406;2023-09-18T06:48:05;21.00;99.90
24518;DHT22;12678;51.336;12.406;2023-09-18T06:50:31;21.20;99.90
24518;DHT22;12678;51.336;12.406;2023-09-18T06:52:56;21.30;99.90
24518;DHT22;12678;51.336;12.406;2023-09-18T06:55:22;21.40;99.90
24518;DHT22;12678;51.336;12.406;2023-09-18T06:57:48;21.30;99.90
24518;DHT22;12678;51.336;12.406;2023-09-18T07:00:14;21.30;99.90
24518;DHT22;12678;51.336;12.406;2023-09-18T07:02:46;21.50;99.90
24518;DHT22;12678;51.336;12.406;2023-09-18T07:05:12;21.60;99.90
24518;DHT22;12678;51.336;12.406;2023-09-18T07:07:37;21.70;99.90
24518;DHT22;12678;51.336;12.406;2023-09-18T07:10:03;21.80;99.90
24518;DHT22;12678;51.336;12.406;2023-09-18T07:12:29;21.90;99.90
24518;DHT22;12678;51.336;12.406;2023-09-18T07:14:54;22.10;99.90
24518;DHT22;12678;51.336;12.406;2023-09-18T07:17:20;22.10;99.90
24518;DHT22;12678;51.336;12.406;2023-09-18T07:19:45;22.20;99.90
24518;DHT22;12678;51.336;12.406;2023-09-18T07:22:11;22.30;99.90
24518;DHT22;12678;51.336;12.406;2023-09-18T07:24:37;22.20;99.90
24518;DHT22;12678;51.336;12.406;2023-09-18T07:27:06;22.40;99.90
24518;DHT22;12678;51.336;12.406;2023-09-18T07:29:31;22.60;99.90
24518;DHT22;12678;51.336;12.406;2023-09-18T07:31:58;22.80;99.90
24518;DHT22;12678;51.336;12.406;2023-09-18T07:34:24;23.00;99.90
24518;DHT22;12678;51.336;12.406;2023-09-18T07:36:49;23.30;99.90
24518;DHT22;12678;51.336;12.406;2023-09-18T07:39:19;23.70;99.90
24518;DHT22;12678;51.336;12.406;2023-09-18T07:41:44;23.90;99.90
24518;DHT22;12678;51.336;12.406;2023-09-18T07:44:10;24.00;99.90
24518;DHT22;12678;51.336;12.406;2023-09-18T07:46:36;24.10;99.90
24518;DHT22;12678;51.336;12.406;2023-09-18T07:49:01;24.20;99.90
24518;DHT22;12678;51.336;12.406;2023-09-18T07:51:27;24.40;99.90
24518;DHT22;12678;51.336;12.406;2023-09-18T07:53:52;24.20;99.90
24518;DHT22;12678;51.336;12.406;2023-09-18T07:56:18;24.00;99.90
24518;DHT22;12678;51.336;12.406;2023-09-18T07:58:44;24.00;99.90
24518;DHT22;12678;51.336;12.406;2023-09-18T08:01:12;23.80;99.90
24518;DHT22;12678;51.336;12.406;2023-09-18T08:03:38;23.80;99.90
24518;DHT22;12678;51.336;12.406;2023-09-18T08:06:03;23.60;99.90
24518;DHT22;12678;51.336;12.406;2023-09-18T08:08:30;23.60;99.90
24518;DHT22;12678;51.336;12.406;2023-09-18T08:10:57;23.40;99.90
24518;DHT22;12678;51.336;12.406;2023-09-18T08:13:24;23.20;99.90
24518;DHT22;12678;51.336;12.406;2023-09-18T08:15:50;23.20;99.90
24518;DHT22;12678;51.336;12.406;2023-09-18T08:18:16;23.10;99.90
24518;DHT22;12678;51.336;12.406;2023-09-18T08:20:42;23.10;99.90
24518;DHT22;12678;51.336;12.406;2023-09-18T08:23:09;23.20;99.90
24518;DHT22;12678;51.336;12.406;2023-09-18T08:25:35;23.20;99.90
24518;DHT22;12678;51.336;12.406;2023-09-18T08:28:01;23.20;99.90
24518;DHT22;12678;51.336;12.406;2023-09-18T08:30:27;23.20;99.90
24518;DHT22;12678;51.336;12.406;2023-09-18T08:32:52;23.20;99.90
24518;DHT22;12678;51.336;12.406;2023-09-18T08:35:18;23.20;99.90
24518;DHT22;12678;51.336;12.406;2023-09-18T08:37:43;23.20;99.90
24518;DHT22;12678;51.336;12.406;2023-09-18T08:40:10;23.10;99.90
24518;DHT22;12678;51.336;12.406;2023-09-18T08:42:43;23.10;99.90
24518;DHT22;12678;51.336;12.406;2023-09-18T08:45:10;23.10;99.90
24518;DHT22;12678;51.336;12.406;2023-09-18T08:47:39;23.10;99.90
24518;DHT22;12678;51.336;12.406;2023-09-18T08:50:08;23.10;99.90
24518;DHT22;12678;51.336;12.406;2023-09-18T08:52:35;23.30;99.90
24518;DHT22;12678;51.336;12.406;2023-09-18T08:55:01;23.30;99.90
24518;DHT22;12678;51.336;12.406;2023-09-18T08:57:29;23.40;99.90
24518;DHT22;12678;51.336;12.406;2023-09-18T08:59:56;23.50;99.90
24518;DHT22;12678;51.336;12.406;2023-09-18T09:02:23;23.60;99.90
24518;DHT22;12678;51.336;12.406;2023-09-18T09:04:48;23.90;99.90
24518;DHT22;12678;51.336;12.406;2023-09-18T09:07:14;24.10;99.90
24518;DHT22;12678;51.336;12.406;2023-09-18T09:09:40;24.20;99.90
24518;DHT22;12678;51.336;12.406;2023-09-18T09:12:07;24.30;99.90
24518;DHT22;12678;51.336;12.406;2023-09-18T09:14:33;24.30;99.90
24518;DHT22;12678;51.336;12.406;2023-09-18T09:16:59;24.30;99.90
24518;DHT22;12678;51.336;12.406;2023-09-18T09:19:29;24.30;99.90
24518;DHT22;12678;51.336;12.406;2023-09-18T09:21:58;24.30;99.90
24518;DHT22;12678;51.336;12.406;2023-09-18T09:24:42;24.30;99.90
24518;DHT22;12678;51.336;12.406;2023-09-18T09:27:09;24.10;99.90
24518;DHT22;12678;51.336;12.406;2023-09-18T09:29:35;24.10;99.90
24518;DHT22;12678;51.336;12.406;2023-09-18T09:32:17;24.00;99.90
24518;DHT22;12678;51.336;12.406;2023-09-18T09:34:44;23.90;99.90
24518;DHT22;12678;51.336;12.406;2023-09-18T09:37:11;23.90;99.90
24518;DHT22;12678;51.336;12.406;2023-09-18T09:39:55;23.90;99.90
24518;DHT22;12678;51.336;12.406;2023-09-18T09:42:22;23.90;99.90
24518;DHT22;12678;51.336;12.406;2023-09-18T09:45:04;23.90;99.90
24518;DHT22;12678;51.336;12.406;2023-09-18T09:47:34;23.90;99.90
24518;DHT22;12678;51.336;12.406;2023-09-18T09:50:06;24.00;99.90
24518;DHT22;12678;51.336;12.406;2023-09-18T09:52:33;24.10;99.90
24518;DHT22;12678;51.336;12.406;2023-09-18T09:54:59;24.10;99.90
24518;DHT22;12678;51.336;12.406;2023-09-18T09:57:24;24.20;99.90
24518;DHT22;12678;51.336;12.406;2023-09-18T09:59:50;24.20;99.90
24518;DHT22;12678;51.336;12.406;2023-09-18T10:02:17;24.30;99.90
24518;DHT22;12678;51.336;12.406;2023-09-18T10:04:49;24.50;99.90
24518;DHT22;12678;51.336;12.406;2023-09-18T10:07:15;24.60;99.90
24518;DHT22;12678;51.336;12.406;2023-09-18T10:09:45;24.70;99.90
24518;DHT22;12678;51.336;12.406;2023-09-18T10:12:15;24.90;99.90
24518;DHT22;12678;51.336;12.406;2023-09-18T10:14:47;25.00;99.90
24518;DHT22;12678;51.336;12.406;2023-09-18T10:17:19;25.00;99.90
24518;DHT22;12678;51.336;12.406;2023-09-18T10:20:08;24.90;99.90
24518;DHT22;12678;51.336;12.406;2023-09-18T10:22:45;24.80;99.90
24518;DHT22;12678;51.336;12.406;2023-09-18T10:25:23;24.70;99.90
24518;DHT22;12678;51.336;12.406;2023-09-18T10:27:50;24.70;99.90
24518;DHT22;12678;51.336;12.406;2023-09-18T10:30:24;24.60;99.90
24518;DHT22;12678;51.336;12.406;2023-09-18T10:32:51;24.60;99.90
24518;DHT22;12678;51.336;12.406;2023-09-18T10:35:17;24.60;99.90
24518;DHT22;12678;51.336;12.406;2023-09-18T10:37:45;24.70;99.90
24518;DHT22;12678;51.336;12.406;2023-09-18T10:40:12;24.70;99.90
24518;DHT22;12678;51.336;12.406;2023-09-18T10:42:39;24.70;99.90
24518;DHT22;12678;51.336;12.406;2023-09-18T10:45:07;24.90;99.90
24518;DHT22;12678;51.336;12.406;2023-09-18T10:47:39;25.10;99.90
24518;DHT22;12678;51.336;12.406;2023-09-18T10:50:06;25.30;99.90
24518;DHT22;12678;51.336;12.406;2023-09-18T10:52:37;25.50;99.90
24518;DHT22;12678;51.336;12.406;2023-09-18T10:55:12;25.70;99.90
24518;DHT22;12678;51.336;12.406;2023-09-18T10:57:50;25.90;99.90
24518;DHT22;12678;51.336;12.406;2023-09-18T11:00:17;26.00;99.90
24518;DHT22;12678;51.336;12.406;2023-09-18T11:02:42;26.00;99.90
24518;DHT22;12678;51.336;12.406;2023-09-18T11:05:08;25.90;99.90
24518;DHT22;12678;51.336;12.406;2023-09-18T11:07:34;25.90;99.90
24518;DHT22;12678;51.336;12.406;2023-09-18T11:09:59;25.90;99.90
24518;DHT22;12678;51.336;12.406;2023-09-18T11:12:45;25.90;99.90
24518;DHT22;12678;51.336;12.406;2023-09-18T11:15:25;25.90;99.90
24518;DHT22;12678;51.336;12.406;2023-09-18T11:18:02;25.90;99.90
24518;DHT22;12678;51.336;12.406;2023-09-18T11:20:31;25.70;99.90
24518;DHT22;12678;51.336;12.406;2023-09-18T11:22:58;25.60;99.90
24518;DHT22;12678;51.336;12.406;2023-09-18T11:28:01;25.60;99.90
24518;DHT22;12678;51.336;12.406;2023-09-18T11:30:28;25.50;99.90
24518;DHT22;12678;51.336;12.406;2023-09-18T11:32:54;25.60;99.90
24518;DHT22;12678;51.336;12.406;2023-09-18T11:35:21;25.60;99.90
24518;DHT22;12678;51.336;12.406;2023-09-18T11:37:50;25.60;99.90
24518;DHT22;12678;51.336;12.406;2023-09-18T11:40:32;25.60;99.90
24518;DHT22;12678;51.336;12.406;2023-09-18T11:45:52;25.60;99.90
24518;DHT22;12678;51.336;12.406;2023-09-18T11:48:19;25.60;99.90
24518;DHT22;12678;51.336;12.406;2023-09-18T11:50:46;25.60;99.90
24518;DHT22;12678;51.336;12.406;2023-09-18T11:53:16;25.50;99.90
24518;DHT22;12678;51.336;12.406;2023-09-18T11:55:43;25.50;99.90
24518;DHT22;12678;51.336;12.406;2023-09-18T11:58:09;25.40;99.90
24518;DHT22;12678;51.336;12.406;2023-09-18T12:00:37;25.30;99.90
24518;DHT22;12678;51.336;12.406;2023-09-18T12:03:15;25.20;99.90
24518;DHT22;12678;51.336;12.406;2023-09-18T12:05:52;25.10;99.90
24518;DHT22;12678;51.336;12.406;2023-09-18T12:08:18;24.90;99.90
24518;DHT22;12678;51.336;12.406;2023-09-18T12:10:43;24.80;99.90
24518;DHT22;12678;51.336;12.406;2023-09-18T12:13:09;24.70;99.90
24518;DHT22;12678;51.336;12.406;2023-09-18T12:15:35;24.50;99.90
24518;DHT22;12678;51.336;12.406;2023-09-18T12:18:08;24.40;99.90
24518;DHT22;12678;51.336;12.406;2023-09-18T12:20:34;24.30;99.90
24518;DHT22;12678;51.336;12.406;2023-09-18T12:23:01;24.20;99.90
24518;DHT22;12678;51.336;12.406;2023-09-18T12:25:28;24.20;99.90
24518;DHT22;12678;51.336;12.406;2023-09-18T12:27:54;24.10;99.90
24518;DHT22;12678;51.336;12.406;2023-09-18T12:30:21;24.10;99.90
24518;DHT22;12678;51.336;12.406;2023-09-18T12:32:49;24.00;99.90
24518;DHT22;12678;51.336;12.406;2023-09-18T12:35:14;23.90;99.90
24518;DHT22;12678;51.336;12.406;2023-09-18T12:37:41;23.90;99.90
24518;DHT22;12678;51.336;12.406;2023-09-18T12:40:20;23.80;99.90
24518;DHT22;12678;51.336;12.406;2023-09-18T12:42:46;23.70;99.90
24518;DHT22;12678;51.336;12.406;2023-09-18T12:45:12;23.60;99.90
24518;DHT22;12678;51.336;12.406;2023-09-18T12:47:38;23.60;99.90
24518;DHT22;12678;51.336;12.406;2023-09-18T12:50:05;23.60;99.90
24518;DHT22;12678;51.336;12.406;2023-09-18T12:52:36;23.60;99.90
24518;DHT22;12678;51.336;12.406;2023-09-18T12:55:01;23.70;99.90
24518;DHT22;12678;51.336;12.406;2023-09-18T12:57:29;23.70;99.90
24518;DHT22;12678;51.336;12.406;2023-09-18T12:59:56;23.80;99.90
24518;DHT22;12678;51.336;12.406;2023-09-18T13:02:21;23.90;99.90
24518;DHT22;12678;51.336;12.406;2023-09-18T13:04:55;23.90;99.90
24518;DHT22;12678;51.336;12.406;2023-09-18T13:07:22;23.90;99.90
24518;DHT22;12678;51.336;12.406;2023-09-18T13:10:04;23.90;99.90
24518;DHT22;12678;51.336;12.406;2023-09-18T13:12:45;23.90;99.90
24518;DHT22;12678;51.336;12.406;2023-09-18T13:15:11;23.80;99.90
24518;DHT22;12678;51.336;12.406;2023-09-18T13:17:45;23.80;99.90
24518;DHT22;12678;51.336;12.406;2023-09-18T13:20:21;23.80;99.90
24518;DHT22;12678;51.336;12.406;2023-09-18T13:22:50;23.80;99.90
24518;DHT22;12678;51.336;12.406;2023-09-18T13:25:23;23.70;99.90
24518;DHT22;12678;51.336;12.406;2023-09-18T13:27:50;23.70;99.90
24518;DHT22;12678;51.336;12.406;2023-09-18T13:30:16;23.60;99.90
24518;DHT22;12678;51.336;12.406;2023-09-18T13:32:44;23.60;99.90
24518;DHT22;12678;51.336;12.406;2023-09-18T13:35:10;23.60;99.90
24518;DHT22;12678;51.336;12.406;2023-09-18T13:37:37;23.60;99.90
24518;DHT22;12678;51.336;12.406;2023-09-18T13:40:05;23.60;99.90
24518;DHT22;12678;51.336;12.406;2023-09-18T13:42:35;23.60;99.90
24518;DHT22;12678;51.336;12.406;2023-09-18T13:45:01;23.60;99.90
24518;DHT22;12678;51.336;12.406;2023-09-18T13:47:27;23.60;99.90
24518;DHT22;12678;51.336;12.406;2023-09-18T13:49:53;23.60;99.90
24518;DHT22;12678;51.336;12.406;2023-09-18T13:52:25;23.60;99.90
24518;DHT22;12678;51.336;12.406;2023-09-18T13:54:51;23.60;99.90
24518;DHT22;12678;51.336;12.406;2023-09-18T13:57:21;23.70;99.90
24518;DHT22;12678;51.336;12.406;2023-09-18T13:59:47;23.60;99.90
24518;DHT22;12678;51.336;12.406;2023-09-18T14:02:14;23.70;99.90
24518;DHT22;12678;51.336;12.406;2023-09-18T14:04:40;23.70;99.90
24518;DHT22;12678;51.336;12.406;2023-09-18T14:07:06;23.60;99.90
24518;DHT22;12678;51.336;12.406;2023-09-18T14:09:32;23.60;99.90
24518;DHT22;12678;51.336;12.406;2023-09-18T14:11:58;23.60;99.90
24518;DHT22;12678;51.336;12.406;2023-09-18T14:14:23;23.50;99.90
24518;DHT22;12678;51.336;12.406;2023-09-18T14:16:49;23.50;99.90
24518;DHT22;12678;51.336;12.406;2023-09-18T14:19:19;23.40;99.90
24518;DHT22;12678;51.336;12.406;2023-09-18T14:21:45;23.30;99.90
24518;DHT22;12678;51.336;12.406;2023-09-18T14:24:11;23.20;99.90
24518;DHT22;12678;51.336;12.406;2023-09-18T14:26:36;23.10;99.90
24518;DHT22;12678;51.336;12.406;2023-09-18T14:29:09;23.00;99.90
24518;DHT22;12678;51.336;12.406;2023-09-18T14:31:37;23.00;99.90
24518;DHT22;12678;51.336;12.406;2023-09-18T14:34:03;22.90;99.90
24518;DHT22;12678;51.336;12.406;2023-09-18T14:36:32;22.90;99.90
24518;DHT22;12678;51.336;12.406;2023-09-18T14:39:02;22.90;99.90
24518;DHT22;12678;51.336;12.406;2023-09-18T14:41:27;22.90;99.90
24518;DHT22;12678;51.336;12.406;2023-09-18T14:43:53;22.90;99.90
24518;DHT22;12678;51.336;12.406;2023-09-18T14:46:19;22.90;99.90
24518;DHT22;12678;51.336;12.406;2023-09-18T14:48:45;22.90;99.90
24518;DHT22;12678;51.336;12.406;2023-09-18T14:51:11;22.90;99.90
24518;DHT22;12678;51.336;12.406;2023-09-18T14:53:37;22.80;99.90
24518;DHT22;12678;51.336;12.406;2023-09-18T14:56:03;22.70;99.90
24518;DHT22;12678;51.336;12.406;2023-09-18T14:58:29;22.60;99.90
24518;DHT22;12678;51.336;12.406;2023-09-18T15:00:56;22.70;99.90
24518;DHT22;12678;51.336;12.406;2023-09-18T15:03:21;22.70;99.90
24518;DHT22;12678;51.336;12.406;2023-09-18T15:05:49;22.50;99.90
24518;DHT22;12678;51.336;12.406;2023-09-18T15:08:16;22.50;99.90
24518;DHT22;12678;51.336;12.406;2023-09-18T15:10:42;22.50;99.90
24518;DHT22;12678;51.336;12.406;2023-09-18T15:13:07;22.40;99.90
24518;DHT22;12678;51.336;12.406;2023-09-18T15:15:33;22.50;99.90
24518;DHT22;12678;51.336;12.406;2023-09-18T15:18:01;22.50;99.90
24518;DHT22;12678;51.336;12.406;2023-09-18T15:20:26;22.40;99.90